createdAt,value
2022-12-22T00:01:38.623Z,95702.66
2022-12-22T00:04:29.243Z,95735.03
2022-12-22T00:07:14.460Z,95710.91
2022-12-22T00:09:59.678Z,95723.22
2022-12-22T00:12:46.052Z,95712.94
2022-12-22T00:15:35.921Z,95670.50
2022-12-22T00:18:22.076Z,95723.16
2022-12-22T00:21:07.585Z,95722.03
2022-12-22T00:23:52.749Z,95685.66
2022-12-22T00:26:38.160Z,95705.00
2022-12-22T00:29:23.966Z,95694.72
2022-12-22T00:32:09.172Z,95700.34
2022-12-22T00:34:59.938Z,95690.50
2022-12-22T00:37:51.736Z,95683.56
2022-12-22T00:40:40.670Z,95693.19
2022-12-22T00:43:25.905Z,95664.75
2022-12-22T00:46:11.682Z,95651.75
2022-12-22T00:49:00.636Z,95671.78
2022-12-22T00:51:46.833Z,95664.91
2022-12-22T00:54:33.683Z,95632.69
2022-12-22T00:57:20.395Z,95670.34
2022-12-22T01:00:08.198Z,95644.13
2022-12-22T01:02:53.483Z,95636.00
2022-12-22T01:05:38.922Z,95666.63
2022-12-22T01:08:24.112Z,95642.06
2022-12-22T01:11:09.430Z,95629.31
2022-12-22T01:13:54.701Z,95661.31
2022-12-22T01:16:39.989Z,95652.00
2022-12-22T01:19:25.147Z,95638.03
2022-12-22T01:22:10.286Z,95646.69
2022-12-22T01:24:55.578Z,95625.03
2022-12-22T01:27:40.815Z,95642.19
2022-12-22T01:30:27.056Z,95633.72
2022-12-22T01:33:12.382Z,95632.09
2022-12-22T01:35:59.622Z,95631.38
2022-12-22T01:38:44.813Z,95644.19
2022-12-22T01:41:37.123Z,95629.63
2022-12-22T01:44:32.062Z,95650.03
2022-12-22T01:47:49.671Z,95640.03
2022-12-22T01:50:40.012Z,95608.00
2022-12-22T01:53:30.777Z,95631.03
2022-12-22T01:56:17.977Z,95618.94
2022-12-22T01:59:08.642Z,95605.44
2022-12-22T02:01:54.593Z,95599.34
2022-12-22T02:04:44.872Z,95601.38
2022-12-22T02:07:46.783Z,95597.59
2022-12-22T02:10:41.567Z,95572.59
2022-12-22T02:14:02.161Z,95592.09
2022-12-22T02:16:58.294Z,95593.94
2022-12-22T02:20:13.461Z,95593.03
2022-12-22T02:23:26.047Z,95590.66
2022-12-22T02:26:39.283Z,95550.78
2022-12-22T02:29:25.447Z,95584.84
2022-12-22T02:32:10.983Z,95546.50
2022-12-22T02:34:57.351Z,95551.13
2022-12-22T02:37:51.841Z,95580.00
2022-12-22T02:41:05.099Z,95579.22
2022-12-22T02:44:01.179Z,95575.84
2022-12-22T02:46:53.521Z,95531.38
2022-12-22T02:49:47.442Z,95569.41
2022-12-22T02:52:37.710Z,95575.88
2022-12-22T02:55:23.654Z,95549.25
2022-12-22T02:58:12.534Z,95551.78
2022-12-22T03:00:58.378Z,95560.53
2022-12-22T03:03:43.972Z,95526.00
2022-12-22T03:06:29.180Z,95534.94
2022-12-22T03:09:14.285Z,95541.91
2022-12-22T03:11:59.964Z,95551.78
2022-12-22T03:14:45.088Z,95523.59
2022-12-22T03:17:30.276Z,95521.56
2022-12-22T03:20:15.601Z,95511.13
2022-12-22T03:23:00.648Z,95523.69
2022-12-22T03:25:45.722Z,95530.75
2022-12-22T03:28:12.428Z,95516.03
2022-12-22T03:30:39.402Z,95519.59
2022-12-22T03:33:06.772Z,95508.97
2022-12-22T03:35:33.582Z,95504.13
2022-12-22T03:38:03.661Z,95508.47
2022-12-22T03:40:31.755Z,95459.28
2022-12-22T03:43:16.928Z,95485.59
2022-12-22T03:46:02.214Z,95458.94
2022-12-22T03:48:28.885Z,95449.16
2022-12-22T03:50:55.488Z,95447.53
2022-12-22T03:53:22.073Z,95457.91
2022-12-22T03:55:48.669Z,95476.00
2022-12-22T03:58:15.325Z,95486.50
2022-12-22T04:00:42.067Z,95459.63
2022-12-22T04:03:08.989Z,95487.88
2022-12-22T04:05:35.693Z,95468.91
2022-12-22T04:08:02.274Z,95490.06
2022-12-22T04:10:47.429Z,95469.69
2022-12-22T04:13:13.997Z,95473.44
2022-12-22T04:15:40.943Z,95462.38
2022-12-22T04:18:07.871Z,95482.13
2022-12-22T04:20:34.485Z,95451.56
2022-12-22T04:23:01.584Z,95477.19
2022-12-22T04:25:29.604Z,95434.91
2022-12-22T04:27:56.278Z,95476.19
2022-12-22T04:30:25.897Z,95432.56
2022-12-22T04:32:52.501Z,95443.63
2022-12-22T04:35:19.350Z,95459.34
2022-12-22T04:37:45.939Z,95460.28
2022-12-22T04:40:13.532Z,95472.19
2022-12-22T04:42:40.138Z,95435.69
2022-12-22T04:45:07.311Z,95444.53
2022-12-22T04:47:33.959Z,95458.38
2022-12-22T04:50:00.587Z,95448.25
2022-12-22T04:52:27.312Z,95451.38
2022-12-22T04:54:54.000Z,95436.94
2022-12-22T04:57:21.443Z,95422.91
2022-12-22T04:59:48.061Z,95432.69
2022-12-22T05:02:14.775Z,95406.06
2022-12-22T05:04:41.439Z,95399.00
2022-12-22T05:07:08.235Z,95429.84
2022-12-22T05:09:37.723Z,95428.31
2022-12-22T05:12:24.545Z,95429.22
2022-12-22T05:14:51.190Z,95357.44
2022-12-22T05:17:18.033Z,95389.50
2022-12-22T05:19:44.677Z,95416.78
2022-12-22T05:22:11.462Z,95426.63
2022-12-22T05:24:38.100Z,95397.53
2022-12-22T05:27:05.079Z,95384.63
2022-12-22T05:29:31.803Z,95408.91
2022-12-22T05:31:58.387Z,95393.44
2022-12-22T05:34:26.442Z,95399.91
2022-12-22T05:36:53.049Z,95381.03
2022-12-22T05:39:19.719Z,95426.09
2022-12-22T05:41:46.601Z,95430.03
2022-12-22T05:44:13.296Z,95404.03
2022-12-22T05:46:40.000Z,95428.72
2022-12-22T05:49:06.796Z,95402.53
2022-12-22T05:51:33.495Z,95407.91
2022-12-22T05:54:00.176Z,95413.47
2022-12-22T05:56:26.816Z,95403.94
2022-12-22T05:58:53.409Z,95436.91
2022-12-22T06:01:20.042Z,95423.03
2022-12-22T06:03:46.715Z,95439.63
2022-12-22T06:06:13.478Z,95433.50
2022-12-22T06:08:40.036Z,95433.22
2022-12-22T06:11:06.761Z,95389.94
2022-12-22T06:13:33.475Z,95399.78
2022-12-22T06:16:00.288Z,95397.47
2022-12-22T06:18:26.953Z,95437.44
2022-12-22T06:20:54.268Z,95430.50
2022-12-22T06:23:22.466Z,95396.34
2022-12-22T06:26:00.036Z,95428.03
2022-12-22T06:28:27.425Z,95433.00
2022-12-22T06:30:55.254Z,95433.75
2022-12-22T06:33:22.026Z,95378.47
2022-12-22T06:35:53.959Z,95432.72
2022-12-22T06:38:24.447Z,95375.16
2022-12-22T06:40:50.967Z,95429.78
2022-12-22T06:43:17.597Z,95428.56
2022-12-22T06:45:44.492Z,95393.28
2022-12-22T06:48:12.561Z,95425.94
2022-12-22T06:50:39.791Z,95395.59
2022-12-22T06:53:07.739Z,95407.47
2022-12-22T06:55:34.517Z,95389.44
2022-12-22T06:58:02.063Z,95414.09
2022-12-22T07:00:28.898Z,95391.78
2022-12-22T07:02:55.769Z,95412.91
2022-12-22T07:05:25.933Z,95332.56
2022-12-22T07:07:52.886Z,95408.28
2022-12-22T07:10:39.725Z,95385.69
2022-12-22T07:13:19.333Z,95375.38
2022-12-22T07:15:52.091Z,95331.25
2022-12-22T07:18:24.368Z,95355.41
2022-12-22T07:20:51.025Z,95381.09
2022-12-22T07:23:17.912Z,95400.63
2022-12-22T07:25:44.601Z,95361.22
2022-12-22T07:28:15.071Z,95349.69
2022-12-22T07:30:45.076Z,95382.78
2022-12-22T07:33:11.769Z,95373.84
2022-12-22T07:35:38.369Z,95334.00
2022-12-22T07:38:04.981Z,95341.19
2022-12-22T07:40:31.624Z,95298.00
2022-12-22T07:42:59.590Z,95371.28
2022-12-22T07:45:26.775Z,95363.72
2022-12-22T07:47:59.480Z,95391.13
2022-12-22T07:50:27.697Z,95386.81
2022-12-22T07:52:59.913Z,95331.88
2022-12-22T07:55:29.165Z,95382.34
2022-12-22T07:57:56.083Z,95372.34
2022-12-22T08:00:26.554Z,95368.34
2022-12-22T08:02:55.710Z,95366.06
2022-12-22T08:05:24.026Z,95358.81
2022-12-22T08:07:51.847Z,95354.69
2022-12-22T08:10:20.295Z,95130.06
2022-12-22T08:12:47.142Z,95289.78
2022-12-22T08:15:13.819Z,95343.91
2022-12-22T08:17:40.871Z,95324.97
2022-12-22T08:20:08.287Z,95327.59
2022-12-22T08:22:35.140Z,95245.50
2022-12-22T08:25:02.178Z,95315.91
2022-12-22T08:27:40.522Z,95347.59
2022-12-22T08:30:08.124Z,95349.56
2022-12-22T08:32:37.582Z,95336.34
2022-12-22T08:35:06.274Z,95325.59
2022-12-22T08:37:41.043Z,95331.88
2022-12-22T08:40:12.926Z,95319.13
2022-12-22T08:42:40.487Z,95167.59
2022-12-22T08:45:09.267Z,95311.41
2022-12-22T08:47:36.291Z,95327.69
2022-12-22T08:50:03.843Z,95312.09
2022-12-22T08:52:31.538Z,95318.66
2022-12-22T08:54:58.176Z,95306.78
2022-12-22T08:57:24.929Z,95313.97
2022-12-22T08:59:51.723Z,95287.56
2022-12-22T09:02:18.750Z,95320.56
2022-12-22T09:04:45.470Z,95339.06
2022-12-22T09:07:12.445Z,95340.94
2022-12-22T09:09:39.217Z,95298.84
2022-12-22T09:12:06.402Z,95350.91
2022-12-22T09:14:33.540Z,95355.66
2022-12-22T09:17:00.383Z,95349.00
2022-12-22T09:19:27.109Z,95321.69
2022-12-22T09:21:54.787Z,95341.03
2022-12-22T09:24:21.429Z,95357.28
2022-12-22T09:26:48.182Z,95346.22
2022-12-22T09:29:17.775Z,95340.09
2022-12-22T09:31:44.720Z,95347.97
2022-12-22T09:34:17.696Z,95338.91
2022-12-22T09:36:45.384Z,95330.66
2022-12-22T09:39:12.624Z,95355.84
2022-12-22T09:41:54.516Z,95299.59
2022-12-22T09:44:29.770Z,95359.94
2022-12-22T09:47:00.674Z,95357.25
2022-12-22T09:49:28.278Z,95344.09
2022-12-22T09:52:00.462Z,95312.34
2022-12-22T09:54:28.442Z,95363.19
2022-12-22T09:56:56.532Z,95319.72
2022-12-22T09:59:27.371Z,95360.34
2022-12-22T10:02:12.167Z,95372.66
2022-12-22T10:04:57.543Z,95359.03
2022-12-22T10:07:30.303Z,95361.00
2022-12-22T10:09:57.047Z,95352.78
2022-12-22T10:12:25.549Z,95316.66
2022-12-22T10:14:53.876Z,95331.56
2022-12-22T10:17:29.125Z,95362.84
2022-12-22T10:20:14.690Z,95366.38
2022-12-22T10:23:01.070Z,95379.66
2022-12-22T10:28:28.137Z,95380.56
2022-12-22T10:31:17.350Z,95392.94
2022-12-22T10:33:47.600Z,95370.38
2022-12-22T10:36:27.594Z,95388.53
2022-12-22T10:38:56.731Z,95364.88
2022-12-22T10:41:27.311Z,95368.38
2022-12-22T10:44:00.859Z,95386.91
2022-12-22T10:46:34.555Z,95381.50
2022-12-22T10:49:16.492Z,95383.41
2022-12-22T10:51:45.809Z,95386.91
2022-12-22T10:54:45.597Z,95375.19
2022-12-22T10:57:15.265Z,95374.84
2022-12-22T11:00:09.944Z,95375.28
2022-12-22T11:02:38.682Z,95377.91
2022-12-22T11:05:08.973Z,95383.19
2022-12-22T11:07:42.380Z,95351.38
2022-12-22T11:10:15.538Z,95381.66
2022-12-22T11:13:07.135Z,95380.97
2022-12-22T11:15:42.497Z,95374.19
2022-12-22T11:18:25.319Z,95376.72
2022-12-22T11:20:59.982Z,95351.09
2022-12-22T11:23:36.464Z,95356.66
2022-12-22T11:26:45.656Z,95369.03
2022-12-22T11:29:21.349Z,95385.34
2022-12-22T11:32:08.634Z,95377.09
2022-12-22T11:35:12.407Z,95350.28
2022-12-22T11:38:05.085Z,95371.31
2022-12-22T11:40:52.657Z,95371.31
2022-12-22T11:43:31.007Z,95363.41
2022-12-22T11:46:21.591Z,95363.84
2022-12-22T11:49:10.216Z,95354.66
2022-12-22T11:51:39.629Z,95354.53
2022-12-22T11:54:15.264Z,95331.53
2022-12-22T11:56:52.023Z,95319.94
2022-12-22T11:59:37.593Z,95313.03
2022-12-22T12:02:42.995Z,95311.63
2022-12-22T12:05:31.215Z,95303.22
2022-12-22T12:08:06.896Z,95294.03
2022-12-22T12:10:44.849Z,95292.59
2022-12-22T12:13:30.116Z,95294.88
2022-12-22T12:16:18.691Z,95284.91
2022-12-22T12:18:57.568Z,95288.75
2022-12-22T12:21:29.719Z,95295.66
2022-12-22T12:24:08.788Z,95288.97
2022-12-22T12:27:00.632Z,95291.50
2022-12-22T12:30:13.546Z,95279.78
2022-12-22T12:32:47.727Z,95281.75
2022-12-22T12:35:40.539Z,95275.94
2022-12-22T12:41:58.559Z,95278.25
2022-12-22T12:44:28.812Z,95265.44
2022-12-22T12:47:04.338Z,95228.31
2022-12-22T12:49:34.151Z,95271.66
2022-12-22T12:52:02.569Z,95240.47
2022-12-22T12:54:29.126Z,95275.94
2022-12-22T12:56:55.660Z,95270.78
2022-12-22T12:59:40.587Z,95274.09
2022-12-22T13:02:29.962Z,95275.81
2022-12-22T13:05:18.128Z,95277.81
2022-12-22T13:08:17.854Z,95279.13
2022-12-22T13:11:08.803Z,95266.41
2022-12-22T13:13:35.467Z,95282.50
2022-12-22T13:16:02.299Z,95282.84
2022-12-22T13:18:29.129Z,95280.88
2022-12-22T13:24:24.552Z,95283.28
2022-12-22T13:26:55.232Z,95244.94
2022-12-22T13:29:21.897Z,95281.75
2022-12-22T13:31:52.629Z,95278.00
2022-12-22T13:34:22.407Z,95278.34
2022-12-22T13:36:51.000Z,95265.63
2022-12-22T13:39:17.663Z,95267.72
2022-12-22T13:41:46.659Z,95256.56
2022-12-22T13:44:31.357Z,95275.72
2022-12-22T13:47:13.350Z,95295.44
2022-12-22T13:50:07.728Z,95259.59
2022-12-22T13:52:29.050Z,95267.63
2022-12-22T13:54:55.751Z,95272.97
2022-12-22T13:57:25.174Z,95258.28
2022-12-22T13:59:52.419Z,95245.38
2022-12-22T14:02:21.750Z,95286.22
2022-12-22T14:05:07.847Z,95291.38
2022-12-22T14:07:34.546Z,95305.28
2022-12-22T14:10:01.340Z,95273.63
2022-12-22T14:12:31.708Z,95306.03
2022-12-22T14:15:01.934Z,95294.00
2022-12-22T14:17:28.592Z,95296.75
2022-12-22T14:20:00.969Z,95324.75
2022-12-22T14:22:33.950Z,95333.19
2022-12-22T14:25:09.335Z,95287.63
2022-12-22T14:27:44.641Z,95343.94
2022-12-22T14:30:23.540Z,95349.31
2022-12-22T14:32:55.961Z,95352.59
2022-12-22T14:35:23.121Z,95353.78
2022-12-22T14:37:50.926Z,95341.72
2022-12-22T14:40:32.798Z,95358.59
2022-12-22T14:43:01.763Z,95368.78
2022-12-22T14:45:28.551Z,95308.31
2022-12-22T14:47:59.137Z,95349.94
2022-12-22T14:50:27.807Z,95345.97
2022-12-22T14:52:57.127Z,95326.34
2022-12-22T14:55:29.827Z,95366.56
2022-12-22T14:58:01.511Z,95344.66
2022-12-22T15:00:30.739Z,95372.25
2022-12-22T15:03:04.238Z,95393.63
2022-12-22T15:05:36.212Z,95381.13
2022-12-22T15:08:07.255Z,95386.06
2022-12-22T15:10:44.707Z,95356.44
2022-12-22T15:13:18.367Z,95369.06
2022-12-22T15:15:45.182Z,95402.59
2022-12-22T15:18:14.976Z,95381.22
2022-12-22T15:20:42.146Z,95411.56
2022-12-22T15:23:16.644Z,95386.91
2022-12-22T15:25:43.441Z,95388.44
2022-12-22T15:28:10.098Z,95422.50
2022-12-22T15:30:37.429Z,95429.63
2022-12-22T15:33:04.450Z,95412.28
2022-12-22T15:35:33.680Z,95424.78
2022-12-22T15:38:01.245Z,95426.09
2022-12-22T15:40:29.067Z,95455.59
2022-12-22T15:42:55.789Z,95436.59
2022-12-22T15:45:22.839Z,95461.94
2022-12-22T15:47:53.385Z,95460.06
2022-12-22T15:50:25.551Z,95427.69
2022-12-22T15:52:54.931Z,95473.53
2022-12-22T15:55:22.080Z,95423.47
2022-12-22T15:57:51.666Z,95444.97
2022-12-22T16:00:19.380Z,95460.56
2022-12-22T16:02:46.459Z,95483.53
2022-12-22T16:05:14.992Z,95470.94
2022-12-22T16:07:43.041Z,95490.13
2022-12-22T16:10:28.181Z,95445.72
2022-12-22T16:13:00.713Z,95491.69
2022-12-22T16:15:32.964Z,95484.09
2022-12-22T16:18:02.850Z,95407.94
2022-12-22T16:20:37.382Z,95475.50
2022-12-22T16:23:06.246Z,95498.22
2022-12-22T16:25:38.917Z,95500.06
2022-12-22T16:28:06.662Z,95502.38
2022-12-22T16:30:34.450Z,95492.31
2022-12-22T16:33:01.320Z,95495.03
2022-12-22T16:35:30.229Z,95489.50
2022-12-22T16:37:58.349Z,95500.84
2022-12-22T16:40:26.874Z,95511.88
2022-12-22T16:46:20.187Z,95527.00
2022-12-22T16:48:51.185Z,95501.88
2022-12-22T16:51:23.240Z,95492.84
2022-12-22T16:53:50.301Z,95477.97
2022-12-22T16:56:20.368Z,95505.34
2022-12-22T16:58:47.633Z,95535.84
2022-12-22T17:01:23.972Z,95534.91
2022-12-22T17:03:50.799Z,95535.69
2022-12-22T17:06:17.741Z,95511.13
2022-12-22T17:08:46.619Z,95511.41
2022-12-22T17:11:21.645Z,95506.03
2022-12-22T17:13:50.343Z,95548.06
2022-12-22T17:16:22.307Z,95509.94
2022-12-22T17:18:49.658Z,95552.41
2022-12-22T17:21:18.804Z,95551.66
2022-12-22T17:23:50.564Z,95552.63
2022-12-22T17:26:21.314Z,95537.66
2022-12-22T17:28:48.857Z,95538.88
2022-12-22T17:31:21.288Z,95546.72
2022-12-22T17:33:48.647Z,95534.28
2022-12-22T17:36:37.272Z,95551.53
2022-12-22T17:39:04.777Z,95543.66
2022-12-22T17:41:31.847Z,95512.31
2022-12-22T17:43:58.489Z,95551.03
2022-12-22T17:46:25.291Z,95465.38
2022-12-22T17:48:51.991Z,95508.44
2022-12-22T17:51:25.607Z,95541.50
2022-12-22T17:53:53.217Z,95545.22
2022-12-22T17:56:22.053Z,95537.66
2022-12-22T17:58:49.503Z,95535.69
2022-12-22T18:01:29.437Z,95541.84
2022-12-22T18:03:56.993Z,95505.38
2022-12-22T18:06:37.247Z,95527.28
2022-12-22T18:09:05.201Z,95506.13
2022-12-22T18:11:31.935Z,95536.78
2022-12-22T18:13:59.918Z,95535.25
2022-12-22T18:16:26.873Z,95534.44
2022-12-22T18:18:53.556Z,95522.97
2022-12-22T18:21:23.224Z,95512.66
2022-12-22T18:23:51.486Z,95530.34
2022-12-22T18:26:29.490Z,95532.97
2022-12-22T18:28:58.103Z,95544.41
2022-12-22T18:31:25.533Z,95508.28
2022-12-22T18:33:52.374Z,95527.44
2022-12-22T18:36:25.716Z,95520.41
2022-12-22T18:38:52.457Z,95523.03
2022-12-22T18:41:22.888Z,95510.53
2022-12-22T18:43:50.593Z,95542.50
2022-12-22T18:46:17.876Z,95529.75
2022-12-22T18:48:47.247Z,95518.69
2022-12-22T18:51:22.413Z,95548.38
2022-12-22T18:53:51.468Z,95502.66
2022-12-22T18:56:18.440Z,95546.97
2022-12-22T18:58:46.096Z,95485.91
2022-12-22T19:01:25.786Z,95514.91
2022-12-22T19:03:55.281Z,95543.31
2022-12-22T19:06:22.748Z,95543.06
2022-12-22T19:08:49.857Z,95504.13
2022-12-22T19:11:19.653Z,95538.25
2022-12-22T19:13:48.621Z,95528.41
2022-12-22T19:16:19.137Z,95506.19
2022-12-22T19:18:45.891Z,95521.88
2022-12-22T19:21:14.667Z,95512.78
2022-12-22T19:23:41.676Z,95514.34
2022-12-22T19:26:20.309Z,95472.97
2022-12-22T19:28:51.037Z,95465.13
2022-12-22T19:31:24.710Z,95513.63
2022-12-22T19:33:52.599Z,95512.22
2022-12-22T19:36:27.219Z,95518.22
2022-12-22T19:39:03.483Z,95510.13
2022-12-22T19:41:39.883Z,95519.00
2022-12-22T19:44:29.013Z,95517.50
2022-12-22T19:46:59.194Z,95518.47
2022-12-22T19:49:27.699Z,95485.38
2022-12-22T19:51:58.497Z,95496.59
2022-12-22T19:54:25.273Z,95479.00
2022-12-22T19:56:54.681Z,95504.59
2022-12-22T19:59:38.945Z,95499.69
2022-12-22T20:02:21.441Z,95502.44
2022-12-22T20:04:49.613Z,95496.28
2022-12-22T20:07:18.011Z,95493.06
2022-12-22T20:09:47.429Z,95487.19
2022-12-22T20:12:26.556Z,95487.91
2022-12-22T20:14:55.862Z,95489.13
2022-12-22T20:17:23.143Z,95447.31
2022-12-22T20:19:49.824Z,95470.91
2022-12-22T20:22:18.295Z,95485.72
2022-12-22T20:24:46.338Z,95492.75
2022-12-22T20:27:21.820Z,95464.00
2022-12-22T20:29:48.622Z,95460.63
2022-12-22T20:32:15.830Z,95492.75
2022-12-22T20:34:42.822Z,95458.00
2022-12-22T20:37:14.558Z,95470.31
2022-12-22T20:39:41.308Z,95452.19
2022-12-22T20:42:19.369Z,95456.34
2022-12-22T20:45:01.662Z,95462.34
2022-12-22T20:47:32.496Z,95443.25
2022-12-22T20:49:59.509Z,95451.09
2022-12-22T20:52:26.485Z,95456.00
2022-12-22T20:54:53.163Z,95449.09
2022-12-22T20:57:22.107Z,95472.25
2022-12-22T20:59:55.657Z,95459.09
2022-12-22T21:02:26.988Z,95461.75
2022-12-22T21:04:53.965Z,95456.75
2022-12-22T21:07:20.584Z,95418.06
2022-12-22T21:09:47.167Z,95426.09
2022-12-22T21:12:13.825Z,95426.09
2022-12-22T21:14:40.485Z,95437.53
2022-12-22T21:17:16.061Z,95455.63
2022-12-22T21:19:42.859Z,95425.47
2022-12-22T21:22:09.598Z,95428.66
2022-12-22T21:24:36.458Z,95455.97
2022-12-22T21:27:24.499Z,95449.06
2022-12-22T21:29:51.116Z,95399.03
2022-12-22T21:32:17.753Z,95380.47
2022-12-22T21:34:46.985Z,95415.50
2022-12-22T21:37:19.836Z,95407.03
2022-12-22T21:39:46.535Z,95386.56
2022-12-22T21:42:20.079Z,95376.88
2022-12-22T21:44:47.166Z,95411.28
2022-12-22T21:47:17.449Z,95415.75
2022-12-22T21:49:44.205Z,95390.41
2022-12-22T21:52:11.656Z,95395.53
2022-12-22T21:54:38.521Z,95402.03
2022-12-22T21:57:10.761Z,95372.00
2022-12-22T21:59:42.434Z,95360.16
2022-12-22T22:02:16.945Z,95378.09
2022-12-22T22:04:48.401Z,95366.16
2022-12-22T22:07:24.690Z,95388.53
2022-12-22T22:09:51.637Z,95402.56
2022-12-22T22:12:33.664Z,95393.84
2022-12-22T22:15:02.205Z,95367.59
2022-12-22T22:17:31.282Z,95387.41
2022-12-22T22:19:58.157Z,95359.63
2022-12-22T22:22:24.895Z,95372.50
2022-12-22T22:24:51.805Z,95350.63
2022-12-22T22:27:18.531Z,95362.13
2022-12-22T22:29:47.455Z,95349.78
2022-12-22T22:32:14.187Z,95366.75
2022-12-22T22:34:41.134Z,95353.56
2022-12-22T22:37:07.897Z,95350.94
2022-12-22T22:39:34.601Z,95368.31
2022-12-22T22:42:21.745Z,95327.16
2022-12-22T22:44:48.636Z,95314.69
2022-12-22T22:47:15.449Z,95342.75
2022-12-22T22:49:42.149Z,95305.41
2022-12-22T22:52:11.132Z,95343.69
2022-12-22T22:54:39.629Z,95324.59
2022-12-22T22:57:10.007Z,95314.94
2022-12-22T22:59:36.661Z,95302.13
2022-12-22T23:02:03.508Z,95317.94
2022-12-22T23:04:33.602Z,95343.06
2022-12-22T23:07:02.637Z,95291.72
2022-12-22T23:09:29.466Z,95309.91
2022-12-22T23:11:56.301Z,95291.78
2022-12-22T23:14:25.647Z,95304.38
2022-12-22T23:16:52.420Z,95305.59
2022-12-22T23:19:19.230Z,95294.88
2022-12-22T23:21:46.359Z,95298.75
2022-12-22T23:24:13.356Z,95320.97
2022-12-22T23:26:45.174Z,95300.94
2022-12-22T23:29:11.795Z,95272.59
2022-12-22T23:31:38.479Z,95292.81
2022-12-22T23:34:05.540Z,95266.44
2022-12-22T23:36:32.859Z,95312.53
2022-12-22T23:38:59.502Z,95291.91
2022-12-22T23:41:26.204Z,95321.19
2022-12-22T23:43:53.772Z,95288.97
2022-12-22T23:46:21.052Z,95237.94
2022-12-22T23:48:55.824Z,95280.91
2022-12-22T23:51:24.843Z,95271.56
2022-12-22T23:53:51.573Z,95253.34
2022-12-22T23:56:18.801Z,95251.19
2022-12-22T23:58:48.227Z,95230.78
